Pamelia, New York
Current Conditions -  °F | °C
As of 12:58 AM on Friday 31 Oct 2014 (Local Time) from KGTB Reporting Station
Few Clouds Few Clouds  
Wind Chill: -2°   Ceiling: Unl
Heat Index:   Visibility: 10mi
Dew Point:   Wind: 5mph
Humidity: 99%   Direction: 180°S
Pressure: 30"   Gusts: NA
Location:  44.0981°N, 75.8331°W
Report Text: KGTB 310458Z AUTO 18004KT 10SM FEW140 01/00 A3000 RMK AO2 SLP166 T00060004 400740005
Loading
Personal Weather Stations






























Interactive Weather Map
Tropical Storm Tracking
New forecast layout! Learn more

10-Day Weather Forecast

Advertisements
Track Severe Weather on mobile